Flight Track Log - Related Links

Times and Time Zones

All times are in EDT time to prevent confusion due to time zone crossing. See the UPS9701 flight status page for this flight to view local times or setup timezone preferences in your user account.

Time Position Orientation Groundspeed Altitude Reporting Facility
EDT Latitude Longitude Course Direction KTS MPH feet Rate Location/Type
Thu 07:19:04 AM 41.5000 -74.0333 194° South 237 273 3,200  Level New York TRACON
Thu 07:20:03 AM 41.4500 -74.0500 242° Southwest 277 319 4,100 403 Climbing New York TRACON
Thu 07:21:03 AM 41.4167 -74.1333 258° West 260 299 4,000 -50 Descending New York TRACON
Thu 07:22:04 AM 41.4000 -74.2333 258° West 254 292 4,000  Level New York TRACON
Thu 07:23:03 AM 41.3833 -74.3333 285° West 254 292 4,000 504 Level New York TRACON
Thu 07:24:03 AM 41.4000 -74.4167 270° West 248 285 5,000 500 Climbing New York TRACON
Thu 07:25:03 AM 41.4000 -74.5167 255° West 259 298 5,000  Level New York TRACON
Thu 07:26:03 AM 41.3833 -74.6000 201° Southwest 277 319 5,000  Level New York TRACON
Thu 07:27:03 AM 41.3167 -74.6333 197° South 283 326 5,000  Level New York TRACON
Thu 07:28:03 AM 41.2333 -74.6667 169° South 280 322 5,000  Level New York TRACON
Thu 07:29:03 AM 41.1667 -74.6500 114° Southeast 290 334 5,000  Level New York TRACON
Thu 07:30:03 AM 41.1333 -74.5500 129° Southeast 291 335 5,000  Level New York TRACON
Thu 07:31:03 AM 41.0833 -74.4667 124° Southeast 256 295 5,000  Level New York TRACON
Thu 07:32:03 AM 41.0500 -74.4000 124° Southeast 227 261 5,000  Level New York TRACON
Thu 07:33:03 AM 41.0167 -74.3333 135° Southeast 227 261 5,000 -300 Level New York TRACON
Thu 07:34:03 AM 40.9667 -74.2667 131° Southeast 222 255 4,400 -500 Descending New York TRACON
Thu 07:35:03 AM 40.9333 -74.2167 123° Southeast 212 244 4,000 -200 Descending New York TRACON
Thu 07:36:03 AM 40.9000 -74.1500 131° Southeast 205 236 4,000 -150 Level New York TRACON
Thu 07:37:03 AM 40.8667 -74.1000 166° South 204 235 3,700 -550 Descending New York TRACON
Thu 07:38:03 AM 40.8167 -74.0833 217° Southwest 182 209 2,900 -900 Descending New York TRACON
Thu 07:39:03 AM 40.7833 -74.1167 201° Southwest 169 194 1,900 -950 Descending New York TRACON
Thu 07:40:03 AM 40.7500 -74.1333 201° Southwest 145 167 1,000 -750 Descending New York TRACON
Thu 07:41:03 AM 40.7167 -74.1500 201° Southwest 109 125 400 -600 Descending New York TRACON

Login

Don't have an account? Register now (free) for customized features, flight alerts, and more!